x

Mount Louis (45138) Wave Buoy

12:00pm - Mon 20th Oct 2014 All times are UTC.

  • Sig Wave height 5.6ft
  • Peak Period 5s
  • Wind
    25mph, 31mph gusts
  • Sea Temp 42°f
  • Air Temp 42°f
  • Sea Pressure 999.6mb

More Historic Weather Station data

Upgrade to MSW Pro to gain access to the past 30 days of data for over 8000 Wavebouys and Weather Stations around the globe.

Join Pro

Comparision Forecast

View Surf forecast
   
Mon 10/20 12:00pm 5.5ft 5s 25 31 mph 999.6mb 42f 42f
11:00am 5.5ft 5s 25 29 mph 999.5mb 42f 41f
10:00am 4.5ft 5s 25 29 mph 999.8mb 42f 41f
8:00am 3.5ft 5s 20 25 mph 1000.9mb 42f 41f
7:00am 3.5ft 4s 18 22 mph 1001.1mb 42f 41f
6:00am 3.5ft 4s 18 20 mph 1001.5mb 42f 42f
5:00am 3.5ft 4s 18 22 mph 1001.4mb 42f 42f
3:00am 3ft 5s 16 20 mph 1002.5mb 42f 43f
2:00am 3.5ft 5s 16 20 mph 1002.7mb 42f 43f
1:00am 4.5ft 6s 13 18 mph 1003.5mb 42f 43f
12:00am 5.5ft 7s 18 22 mph 1003.5mb 42f 43f
Sun 10/19 11:00pm 6ft 6s 22 27 mph 1003.3mb 42f 43f
10:00pm 7ft 6s 25 29 mph 1002.7mb 42f 43f
9:00pm 8ft 7s 27 31 mph 1001.9mb 42f 42f
8:00pm 9ft 7s 27 36 mph 1000.9mb 42f 43f
7:00pm 8ft 7s 31 38 mph 1000.2mb 42f 42f
6:00pm 9ft 7s 29 38 mph 1000mb 42f 42f
5:00pm 8.5ft 7s 34 40 mph 998.8mb 42f 42f
4:00pm 7.5ft 7s 34 43 mph 998.5mb 43f 42f
3:00pm 7.5ft 7s 29 38 mph 998.4mb 43f 42f
2:00pm 8ft 7s 34 38 mph 997.7mb 43f 42f
1:00pm 8ft 7s 31 38 mph 997.1mb 43f 41f
12:00pm 7ft 6s 34 40 mph 996.5mb 43f 41f
11:00am 6.5ft 6s 31 38 mph 995.9mb 43f 42f
10:00am 5ft 5s 31 38 mph 994.9mb 44f 43f
9:00am 3.5ft 4s 31 38 mph 994.3mb 43f 43f
8:00am 2ft 9s 25 31 mph 994.2mb 44f 44f
7:00am 1.6ft 5s 16 18 mph 994.5mb 44f 45f
6:00am 2ft 6s 9
mph
994.8mb 44f 51f
5:00am 2.5ft 6s 4 7 mph 995.1mb 44f 47f
4:00am 2.5ft 6s 7 9 mph 995.4mb 44f 50f
3:00am 2.5ft 7s 4 7 mph 995.7mb 44f 52f
2:00am 2.5ft 9s 9 11 mph 996.4mb 44f 50f
1:00am 2.5ft 8s 13 16 mph 996.7mb 44f 53f
12:00am 2.5ft 8s 18 20 mph 996.7mb 44f 53f
Sat 10/18 11:00pm 2.5ft 9s 13 16 mph 996.9mb 44f 52f
10:00pm 2.5ft 7s 9 11 mph 997mb 44f 48f
9:00pm 3ft 8s 9 11 mph 997.3mb 44f 49f
8:00pm 3ft 8s 9 11 mph 997.6mb 45f 49f
7:00pm 3ft 8s 9 11 mph 997.7mb 45f 52f
6:00pm 2.5ft 7s 9
mph
998mb 45f 53f
5:00pm 2.5ft 8s 4 7 mph 998.4mb 45f 55f
4:00pm 3ft 8s 7
mph
998.3mb 44f 58f
3:00pm 3ft 8s 9 11 mph 998.7mb 44f 53f
2:00pm 3ft 8s 9 11 mph 999.1mb 44f 51f
1:00pm 3.5ft 8s 7
mph
999.1mb 44f 49f
12:00pm 4ft 8s 11 13 mph 998.8mb 44f 51f
11:00am 4.5ft 9s 7 9 mph 998.5mb 44f 49f
10:00am 6ft 8s 7 9 mph 997.8mb 44f 50f
9:00am 6ft 9s 7 9 mph 997.6mb 44f 55f
8:00am 6ft 10s 7 9 mph 997.6mb 44f 50f
7:00am 7ft 8s 9 11 mph 997.4mb 44f 51f
6:00am 6ft 8s 9 11 mph 997.3mb 44f 50f
5:00am 6ft 9s 13 16 mph 997mb 44f 51f
4:00am 6.5ft 9s 7 9 mph 996.9mb 44f 48f
3:00am 6ft 8s 7 9 mph 996.1mb 44f 46f
2:00am 6ft 8s 9 13 mph 995.8mb 44f 46f
1:00am 6.5ft 8s 13 18 mph 994.9mb 44f 46f
12:00am 6ft 7s 16 20 mph 994.5mb 44f 48f
Fri 10/17 11:00pm 5.5ft 7s 11 16 mph 994.1mb 44f 50f
10:00pm 7ft 7s 11 13 mph 992.9mb 44f 48f
9:00pm 7.5ft 7s 18 20 mph 992.3mb 44f 49f
8:00pm 8ft 7s 27 34 mph 992.5mb 44f 51f
7:00pm 7ft 7s 29 36 mph 993.6mb 44f 49f
6:00pm 6ft 6s 25 31 mph 997.3mb 44f 49f
5:00pm 6.5ft 6s 25 29 mph 1000.1mb 44f 47f
4:00pm 6ft 6s 25 29 mph 1001.8mb 44f 47f
3:00pm 6ft 6s 18 22 mph 1004.2mb 44f 47f
2:00pm 6ft 6s 20 25 mph 1005.8mb 43f 46f
1:00pm 5ft 6s 22 25 mph 1007.2mb 43f 46f
12:00pm 5.5ft 6s 22 27 mph 1008.2mb 43f 46f
11:00am 6ft 6s 25 29 mph 1008.6mb 43f 45f
9:00am 5ft 6s 20 22 mph 1011.4mb 43f 45f
8:00am 5.5ft 5s 22 27 mph 1012.2mb 43f 45f
7:00am 5ft 5s 22 27 mph 1013.3mb 43f 45f
6:00am 5ft 6s 25 29 mph 1014mb 43f 45f
5:00am 5ft 5s 22 27 mph 1014.9mb 43f 45f
4:00am 5ft 5s 22 27 mph 1015.8mb 43f 45f
3:00am 5ft 5s 25 29 mph 1016.6mb 43f 45f
1:00am 5ft 5s 22 27 mph 1018.3mb 43f 45f
12:00am 5ft 6s 22 27 mph 1018.6mb 43f 44f
Thu 10/16 11:00pm 5ft 5s 22 29 mph 1019mb 44f 44f
10:00pm 4.5ft 5s 22 29 mph 1019.3mb 44f 44f
9:00pm 4.5ft 5s 22 27 mph 1019.7mb 43f 44f
8:00pm 4.5ft 5s 22 27 mph 1020.1mb 43f 44f
7:00pm 4.5ft 5s 22 27 mph 1020.4mb 43f 44f
6:00pm 4ft 5s 22 27 mph 1020.8mb 43f 44f
5:00pm 3.5ft 5s 20 25 mph 1021.2mb 43f 44f
4:00pm 3.5ft 4s 22 27 mph 1021.6mb 42f 44f
3:00pm 3.5ft 4s 22 27 mph 1021.9mb 42f 44f
2:00pm 3ft 4s 22 27 mph 1021.9mb 43f 44f